sensor_id;sensor_type;location;lat;lon;timestamp;temperature;humidity
27559;DHT22;15002;52.028;5.670;2023-09-30T00:00:22;15.70;99.90
27559;DHT22;15002;52.028;5.670;2023-09-30T00:02:48;15.80;99.90
27559;DHT22;15002;52.028;5.670;2023-09-30T00:05:15;15.80;99.90
27559;DHT22;15002;52.028;5.670;2023-09-30T00:07:40;15.80;99.90
27559;DHT22;15002;52.028;5.670;2023-09-30T00:10:06;15.90;99.90
27559;DHT22;15002;52.028;5.670;2023-09-30T00:12:32;15.90;99.90
27559;DHT22;15002;52.028;5.670;2023-09-30T00:14:58;15.60;99.90
27559;DHT22;15002;52.028;5.670;2023-09-30T00:17:23;15.70;99.90
27559;DHT22;15002;52.028;5.670;2023-09-30T00:19:49;15.70;99.90
27559;DHT22;15002;52.028;5.670;2023-09-30T00:22:15;15.60;99.90
27559;DHT22;15002;52.028;5.670;2023-09-30T00:24:40;15.50;99.90
27559;DHT22;15002;52.028;5.670;2023-09-30T00:27:06;15.50;99.90
27559;DHT22;15002;52.028;5.670;2023-09-30T00:29:32;15.60;99.90
27559;DHT22;15002;52.028;5.670;2023-09-30T00:31:57;15.70;99.90
27559;DHT22;15002;52.028;5.670;2023-09-30T00:34:23;15.80;99.90
27559;DHT22;15002;52.028;5.670;2023-09-30T00:36:48;16.10;99.90
27559;DHT22;15002;52.028;5.670;2023-09-30T00:39:14;16.20;99.90
27559;DHT22;15002;52.028;5.670;2023-09-30T00:41:39;16.00;99.90
27559;DHT22;15002;52.028;5.670;2023-09-30T00:44:06;16.00;99.90
27559;DHT22;15002;52.028;5.670;2023-09-30T00:46:34;16.00;99.90
27559;DHT22;15002;52.028;5.670;2023-09-30T00:49:01;16.00;99.90
27559;DHT22;15002;52.028;5.670;2023-09-30T00:51:28;16.00;99.90
27559;DHT22;15002;52.028;5.670;2023-09-30T00:53:59;16.00;99.90
27559;DHT22;15002;52.028;5.670;2023-09-30T00:56:27;15.90;99.90
27559;DHT22;15002;52.028;5.670;2023-09-30T00:58:53;16.00;99.90
27559;DHT22;15002;52.028;5.670;2023-09-30T01:01:20;16.10;99.90
27559;DHT22;15002;52.028;5.670;2023-09-30T01:03:46;16.00;99.90
27559;DHT22;15002;52.028;5.670;2023-09-30T01:06:12;16.20;99.90
27559;DHT22;15002;52.028;5.670;2023-09-30T01:08:39;16.10;99.90
27559;DHT22;15002;52.028;5.670;2023-09-30T01:11:05;16.10;99.90
27559;DHT22;15002;52.028;5.670;2023-09-30T01:13:35;16.20;99.90
27559;DHT22;15002;52.028;5.670;2023-09-30T01:16:08;16.00;99.90
27559;DHT22;15002;52.028;5.670;2023-09-30T01:18:38;15.80;99.90
27559;DHT22;15002;52.028;5.670;2023-09-30T01:21:05;15.50;99.90
27559;DHT22;15002;52.028;5.670;2023-09-30T01:23:32;15.50;99.90
27559;DHT22;15002;52.028;5.670;2023-09-30T01:26:02;15.60;99.90
27559;DHT22;15002;52.028;5.670;2023-09-30T01:28:29;15.50;99.90
27559;DHT22;15002;52.028;5.670;2023-09-30T01:30:54;15.60;99.90
27559;DHT22;15002;52.028;5.670;2023-09-30T01:33:20;15.70;99.90
27559;DHT22;15002;52.028;5.670;2023-09-30T01:35:46;15.70;99.90
27559;DHT22;15002;52.028;5.670;2023-09-30T01:38:11;15.70;99.90
27559;DHT22;15002;52.028;5.670;2023-09-30T01:40:37;15.70;99.90
27559;DHT22;15002;52.028;5.670;2023-09-30T01:43:03;15.60;99.90
27559;DHT22;15002;52.028;5.670;2023-09-30T01:45:29;15.50;99.90
27559;DHT22;15002;52.028;5.670;2023-09-30T01:47:55;15.20;99.90
27559;DHT22;15002;52.028;5.670;2023-09-30T01:50:20;15.20;99.90
27559;DHT22;15002;52.028;5.670;2023-09-30T01:52:46;15.10;99.90
27559;DHT22;15002;52.028;5.670;2023-09-30T01:55:11;15.20;99.90
27559;DHT22;15002;52.028;5.670;2023-09-30T01:57:37;15.10;99.90
27559;DHT22;15002;52.028;5.670;2023-09-30T02:00:03;15.30;99.90
27559;DHT22;15002;52.028;5.670;2023-09-30T02:02:30;15.30;99.90
27559;DHT22;15002;52.028;5.670;2023-09-30T02:04:56;15.20;99.90
27559;DHT22;15002;52.028;5.670;2023-09-30T02:07:22;15.20;99.90
27559;DHT22;15002;52.028;5.670;2023-09-30T02:09:48;15.20;99.90
27559;DHT22;15002;52.028;5.670;2023-09-30T02:12:14;15.20;99.90
27559;DHT22;15002;52.028;5.670;2023-09-30T02:14:40;15.30;99.90
27559;DHT22;15002;52.028;5.670;2023-09-30T02:17:05;15.10;99.90
27559;DHT22;15002;52.028;5.670;2023-09-30T02:19:31;15.20;99.90
27559;DHT22;15002;52.028;5.670;2023-09-30T02:21:59;15.10;99.90
27559;DHT22;15002;52.028;5.670;2023-09-30T02:24:25;15.20;99.90
27559;DHT22;15002;52.028;5.670;2023-09-30T02:26:51;15.30;99.90
27559;DHT22;15002;52.028;5.670;2023-09-30T02:29:16;15.40;99.90
27559;DHT22;15002;52.028;5.670;2023-09-30T02:31:42;15.40;99.90
27559;DHT22;15002;52.028;5.670;2023-09-30T02:34:08;15.40;99.90
27559;DHT22;15002;52.028;5.670;2023-09-30T02:36:34;15.50;99.90
27559;DHT22;15002;52.028;5.670;2023-09-30T02:39:04;15.60;99.90
27559;DHT22;15002;52.028;5.670;2023-09-30T02:41:30;15.80;99.90
27559;DHT22;15002;52.028;5.670;2023-09-30T02:43:56;16.00;99.90
27559;DHT22;15002;52.028;5.670;2023-09-30T02:46:22;16.00;99.90
27559;DHT22;15002;52.028;5.670;2023-09-30T02:48:47;15.70;99.90
27559;DHT22;15002;52.028;5.670;2023-09-30T02:51:13;15.50;99.90
27559;DHT22;15002;52.028;5.670;2023-09-30T02:53:38;15.50;99.90
27559;DHT22;15002;52.028;5.670;2023-09-30T02:56:04;15.50;99.90
27559;DHT22;15002;52.028;5.670;2023-09-30T02:58:30;15.50;99.90
27559;DHT22;15002;52.028;5.670;2023-09-30T03:00:56;15.50;99.90
27559;DHT22;15002;52.028;5.670;2023-09-30T03:03:22;15.60;99.90
27559;DHT22;15002;52.028;5.670;2023-09-30T03:05:48;15.50;99.90
27559;DHT22;15002;52.028;5.670;2023-09-30T03:08:15;15.50;99.90
27559;DHT22;15002;52.028;5.670;2023-09-30T03:10:41;15.70;99.90
27559;DHT22;15002;52.028;5.670;2023-09-30T03:13:07;15.90;99.90
27559;DHT22;15002;52.028;5.670;2023-09-30T03:15:35;15.90;99.90
27559;DHT22;15002;52.028;5.670;2023-09-30T03:18:01;15.90;99.90
27559;DHT22;15002;52.028;5.670;2023-09-30T03:20:27;15.80;99.90
27559;DHT22;15002;52.028;5.670;2023-09-30T03:22:52;15.80;99.90
27559;DHT22;15002;52.028;5.670;2023-09-30T03:25:19;15.70;99.90
27559;DHT22;15002;52.028;5.670;2023-09-30T03:27:46;15.50;99.90
27559;DHT22;15002;52.028;5.670;2023-09-30T03:30:13;15.50;99.90
27559;DHT22;15002;52.028;5.670;2023-09-30T03:32:39;15.60;99.90
27559;DHT22;15002;52.028;5.670;2023-09-30T03:35:08;15.70;99.90
27559;DHT22;15002;52.028;5.670;2023-09-30T03:37:36;15.70;99.90
27559;DHT22;15002;52.028;5.670;2023-09-30T03:40:02;15.60;99.90
27559;DHT22;15002;52.028;5.670;2023-09-30T03:42:38;15.70;99.90
27559;DHT22;15002;52.028;5.670;2023-09-30T03:45:05;15.70;99.90
27559;DHT22;15002;52.028;5.670;2023-09-30T03:47:34;15.80;99.90
27559;DHT22;15002;52.028;5.670;2023-09-30T03:49:59;16.00;99.90
27559;DHT22;15002;52.028;5.670;2023-09-30T03:52:25;16.00;99.90
27559;DHT22;15002;52.028;5.670;2023-09-30T03:54:51;15.90;99.90
27559;DHT22;15002;52.028;5.670;2023-09-30T03:57:19;15.90;99.90
27559;DHT22;15002;52.028;5.670;2023-09-30T03:59:44;16.00;99.90
27559;DHT22;15002;52.028;5.670;2023-09-30T04:02:11;16.00;99.90
27559;DHT22;15002;52.028;5.670;2023-09-30T04:04:37;16.20;99.90
27559;DHT22;15002;52.028;5.670;2023-09-30T04:07:03;16.10;99.90
27559;DHT22;15002;52.028;5.670;2023-09-30T04:09:32;15.90;99.90
27559;DHT22;15002;52.028;5.670;2023-09-30T04:11:57;16.00;99.90
27559;DHT22;15002;52.028;5.670;2023-09-30T04:14:23;16.00;99.90
27559;DHT22;15002;52.028;5.670;2023-09-30T04:16:50;16.20;99.90
27559;DHT22;15002;52.028;5.670;2023-09-30T04:19:16;16.00;99.90
27559;DHT22;15002;52.028;5.670;2023-09-30T04:21:42;15.90;99.90
27559;DHT22;15002;52.028;5.670;2023-09-30T04:24:08;16.00;99.90
27559;DHT22;15002;52.028;5.670;2023-09-30T04:26:35;16.10;99.90
27559;DHT22;15002;52.028;5.670;2023-09-30T04:29:02;16.20;99.90
27559;DHT22;15002;52.028;5.670;2023-09-30T04:31:37;16.40;99.90
27559;DHT22;15002;52.028;5.670;2023-09-30T04:34:04;16.40;99.90
27559;DHT22;15002;52.028;5.670;2023-09-30T04:36:31;16.30;99.90
27559;DHT22;15002;52.028;5.670;2023-09-30T04:38:57;16.40;99.90
27559;DHT22;15002;52.028;5.670;2023-09-30T04:41:26;16.20;99.90
27559;DHT22;15002;52.028;5.670;2023-09-30T04:43:52;16.20;99.90
27559;DHT22;15002;52.028;5.670;2023-09-30T04:46:18;16.20;99.90
27559;DHT22;15002;52.028;5.670;2023-09-30T04:48:48;16.20;99.90
27559;DHT22;15002;52.028;5.670;2023-09-30T04:51:14;16.00;99.90
27559;DHT22;15002;52.028;5.670;2023-09-30T04:53:43;16.00;99.90
27559;DHT22;15002;52.028;5.670;2023-09-30T04:56:10;15.90;99.90
27559;DHT22;15002;52.028;5.670;2023-09-30T04:58:36;15.90;99.90
27559;DHT22;15002;52.028;5.670;2023-09-30T05:01:01;16.00;99.90
27559;DHT22;15002;52.028;5.670;2023-09-30T05:03:27;16.00;99.90
27559;DHT22;15002;52.028;5.670;2023-09-30T05:05:53;15.80;99.90
27559;DHT22;15002;52.028;5.670;2023-09-30T05:08:21;15.70;99.90
27559;DHT22;15002;52.028;5.670;2023-09-30T05:10:47;15.60;99.90
27559;DHT22;15002;52.028;5.670;2023-09-30T05:13:13;15.50;99.90
27559;DHT22;15002;52.028;5.670;2023-09-30T05:15:39;15.50;99.90
27559;DHT22;15002;52.028;5.670;2023-09-30T05:18:07;15.60;99.90
27559;DHT22;15002;52.028;5.670;2023-09-30T05:20:35;15.70;99.90
27559;DHT22;15002;52.028;5.670;2023-09-30T05:23:02;15.60;99.90
27559;DHT22;15002;52.028;5.670;2023-09-30T05:25:28;15.70;99.90
27559;DHT22;15002;52.028;5.670;2023-09-30T05:27:54;15.80;99.90
27559;DHT22;15002;52.028;5.670;2023-09-30T05:30:20;16.00;99.90
27559;DHT22;15002;52.028;5.670;2023-09-30T05:32:46;16.10;99.90
27559;DHT22;15002;52.028;5.670;2023-09-30T05:35:12;16.00;99.90
27559;DHT22;15002;52.028;5.670;2023-09-30T05:37:40;15.80;99.90
27559;DHT22;15002;52.028;5.670;2023-09-30T05:40:06;15.80;99.90
27559;DHT22;15002;52.028;5.670;2023-09-30T05:42:44;16.00;99.90
27559;DHT22;15002;52.028;5.670;2023-09-30T05:45:10;15.90;99.90
27559;DHT22;15002;52.028;5.670;2023-09-30T05:47:38;15.80;99.90
27559;DHT22;15002;52.028;5.670;2023-09-30T05:50:06;15.90;99.90
27559;DHT22;15002;52.028;5.670;2023-09-30T05:52:33;15.70;99.90
27559;DHT22;15002;52.028;5.670;2023-09-30T05:54:58;15.70;99.90
27559;DHT22;15002;52.028;5.670;2023-09-30T05:57:27;15.70;99.90
27559;DHT22;15002;52.028;5.670;2023-09-30T05:59:52;15.70;99.90
27559;DHT22;15002;52.028;5.670;2023-09-30T06:02:18;15.60;99.90
27559;DHT22;15002;52.028;5.670;2023-09-30T06:04:45;15.50;99.90
27559;DHT22;15002;52.028;5.670;2023-09-30T06:07:11;15.70;99.90
27559;DHT22;15002;52.028;5.670;2023-09-30T06:09:37;16.00;99.90
27559;DHT22;15002;52.028;5.670;2023-09-30T06:12:03;16.10;99.90
27559;DHT22;15002;52.028;5.670;2023-09-30T06:14:32;15.80;99.90
27559;DHT22;15002;52.028;5.670;2023-09-30T06:16:58;15.80;99.90
27559;DHT22;15002;52.028;5.670;2023-09-30T06:19:24;15.60;99.90
27559;DHT22;15002;52.028;5.670;2023-09-30T06:21:51;15.70;99.90
27559;DHT22;15002;52.028;5.670;2023-09-30T06:24:17;15.70;99.90
27559;DHT22;15002;52.028;5.670;2023-09-30T06:26:45;15.60;99.90
27559;DHT22;15002;52.028;5.670;2023-09-30T06:29:11;15.80;99.90
27559;DHT22;15002;52.028;5.670;2023-09-30T06:31:37;16.10;99.90
27559;DHT22;15002;52.028;5.670;2023-09-30T06:34:03;16.30;99.90
27559;DHT22;15002;52.028;5.670;2023-09-30T06:36:29;16.40;99.90
27559;DHT22;15002;52.028;5.670;2023-09-30T06:38:55;16.70;99.90
27559;DHT22;15002;52.028;5.670;2023-09-30T06:41:21;16.90;99.90
27559;DHT22;15002;52.028;5.670;2023-09-30T06:43:47;17.00;99.90
27559;DHT22;15002;52.028;5.670;2023-09-30T06:46:13;17.00;99.90
27559;DHT22;15002;52.028;5.670;2023-09-30T06:48:39;17.20;99.90
27559;DHT22;15002;52.028;5.670;2023-09-30T06:51:05;17.10;99.90
27559;DHT22;15002;52.028;5.670;2023-09-30T06:53:31;17.20;99.90
27559;DHT22;15002;52.028;5.670;2023-09-30T06:55:57;17.40;99.90
27559;DHT22;15002;52.028;5.670;2023-09-30T06:58:22;17.70;99.90
27559;DHT22;15002;52.028;5.670;2023-09-30T07:00:52;17.80;99.90
27559;DHT22;15002;52.028;5.670;2023-09-30T07:03:20;18.00;99.90
27559;DHT22;15002;52.028;5.670;2023-09-30T07:05:46;18.40;99.90
27559;DHT22;15002;52.028;5.670;2023-09-30T07:08:16;18.60;99.90
27559;DHT22;15002;52.028;5.670;2023-09-30T07:10:42;18.60;99.90
27559;DHT22;15002;52.028;5.670;2023-09-30T07:13:07;18.70;99.90
27559;DHT22;15002;52.028;5.670;2023-09-30T07:15:33;18.60;99.90
27559;DHT22;15002;52.028;5.670;2023-09-30T07:17:59;18.50;99.90
27559;DHT22;15002;52.028;5.670;2023-09-30T07:20:25;18.30;99.90
27559;DHT22;15002;52.028;5.670;2023-09-30T07:22:51;18.30;99.90
27559;DHT22;15002;52.028;5.670;2023-09-30T07:25:17;18.30;99.90
27559;DHT22;15002;52.028;5.670;2023-09-30T07:27:44;18.40;99.90
27559;DHT22;15002;52.028;5.670;2023-09-30T07:30:11;18.40;99.90
27559;DHT22;15002;52.028;5.670;2023-09-30T07:32:38;18.40;99.90
27559;DHT22;15002;52.028;5.670;2023-09-30T07:35:03;18.50;99.90
27559;DHT22;15002;52.028;5.670;2023-09-30T07:37:29;18.70;99.90
27559;DHT22;15002;52.028;5.670;2023-09-30T07:39:55;18.50;99.90
27559;DHT22;15002;52.028;5.670;2023-09-30T07:42:21;18.40;99.90
27559;DHT22;15002;52.028;5.670;2023-09-30T07:44:48;18.30;99.90
27559;DHT22;15002;52.028;5.670;2023-09-30T07:47:14;18.50;99.90
27559;DHT22;15002;52.028;5.670;2023-09-30T07:49:40;18.50;99.90
27559;DHT22;15002;52.028;5.670;2023-09-30T07:52:06;18.50;99.90
27559;DHT22;15002;52.028;5.670;2023-09-30T07:54:32;18.70;99.90
27559;DHT22;15002;52.028;5.670;2023-09-30T07:56:58;18.90;99.90
27559;DHT22;15002;52.028;5.670;2023-09-30T07:59:24;19.40;99.90
27559;DHT22;15002;52.028;5.670;2023-09-30T08:01:50;19.70;99.90
27559;DHT22;15002;52.028;5.670;2023-09-30T08:04:17;19.70;99.90
27559;DHT22;15002;52.028;5.670;2023-09-30T08:06:43;19.90;99.90
27559;DHT22;15002;52.028;5.670;2023-09-30T08:09:08;19.80;99.90
27559;DHT22;15002;52.028;5.670;2023-09-30T08:11:37;20.00;99.90
27559;DHT22;15002;52.028;5.670;2023-09-30T08:14:05;20.00;99.90
27559;DHT22;15002;52.028;5.670;2023-09-30T08:16:38;20.00;99.90
27559;DHT22;15002;52.028;5.670;2023-09-30T08:19:04;19.50;99.90
27559;DHT22;15002;52.028;5.670;2023-09-30T08:21:30;19.70;99.90
27559;DHT22;15002;52.028;5.670;2023-09-30T08:23:57;19.90;99.90
27559;DHT22;15002;52.028;5.670;2023-09-30T08:26:23;19.60;99.90
27559;DHT22;15002;52.028;5.670;2023-09-30T08:28:49;19.70;99.90
27559;DHT22;15002;52.028;5.670;2023-09-30T08:31:14;19.60;99.90
27559;DHT22;15002;52.028;5.670;2023-09-30T08:33:40;19.70;99.90
27559;DHT22;15002;52.028;5.670;2023-09-30T08:36:08;20.00;99.90
27559;DHT22;15002;52.028;5.670;2023-09-30T08:38:36;20.00;99.90
27559;DHT22;15002;52.028;5.670;2023-09-30T08:41:02;20.00;99.90
27559;DHT22;15002;52.028;5.670;2023-09-30T08:43:28;19.90;99.90
27559;DHT22;15002;52.028;5.670;2023-09-30T08:45:56;20.00;99.90
27559;DHT22;15002;52.028;5.670;2023-09-30T08:48:27;20.30;99.90
27559;DHT22;15002;52.028;5.670;2023-09-30T08:50:54;20.40;99.90
27559;DHT22;15002;52.028;5.670;2023-09-30T08:53:20;20.50;99.90
27559;DHT22;15002;52.028;5.670;2023-09-30T08:55:46;20.30;99.90
27559;DHT22;15002;52.028;5.670;2023-09-30T08:58:13;20.20;99.90
27559;DHT22;15002;52.028;5.670;2023-09-30T09:00:39;20.40;99.90
27559;DHT22;15002;52.028;5.670;2023-09-30T09:03:07;20.60;99.90
27559;DHT22;15002;52.028;5.670;2023-09-30T09:05:33;21.40;99.90
27559;DHT22;15002;52.028;5.670;2023-09-30T09:07:58;21.80;99.90
27559;DHT22;15002;52.028;5.670;2023-09-30T09:10:24;21.80;99.90
27559;DHT22;15002;52.028;5.670;2023-09-30T09:12:57;22.10;99.90
27559;DHT22;15002;52.028;5.670;2023-09-30T09:15:27;21.60;99.90
27559;DHT22;15002;52.028;5.670;2023-09-30T09:17:56;21.60;99.90
27559;DHT22;15002;52.028;5.670;2023-09-30T09:20:23;21.90;99.90
27559;DHT22;15002;52.028;5.670;2023-09-30T09:22:54;22.20;99.90
27559;DHT22;15002;52.028;5.670;2023-09-30T09:25:24;22.50;99.90
27559;DHT22;15002;52.028;5.670;2023-09-30T09:27:51;22.10;99.90
27559;DHT22;15002;52.028;5.670;2023-09-30T09:30:24;22.20;99.90
27559;DHT22;15002;52.028;5.670;2023-09-30T09:33:01;22.30;99.90
27559;DHT22;15002;52.028;5.670;2023-09-30T09:35:29;22.50;99.90
27559;DHT22;15002;52.028;5.670;2023-09-30T09:38:00;22.00;99.90
27559;DHT22;15002;52.028;5.670;2023-09-30T09:40:34;22.20;99.90
27559;DHT22;15002;52.028;5.670;2023-09-30T09:43:00;22.30;99.90
27559;DHT22;15002;52.028;5.670;2023-09-30T09:45:32;22.10;99.90
27559;DHT22;15002;52.028;5.670;2023-09-30T09:47:58;22.30;99.90
27559;DHT22;15002;52.028;5.670;2023-09-30T09:50:24;22.20;99.90
27559;DHT22;15002;52.028;5.670;2023-09-30T09:52:54;22.20;99.90
27559;DHT22;15002;52.028;5.670;2023-09-30T09:55:23;22.40;99.90
27559;DHT22;15002;52.028;5.670;2023-09-30T09:57:50;22.60;99.90
27559;DHT22;15002;52.028;5.670;2023-09-30T10:00:20;22.90;99.90
27559;DHT22;15002;52.028;5.670;2023-09-30T10:02:47;23.00;99.90
27559;DHT22;15002;52.028;5.670;2023-09-30T10:05:14;23.10;99.90
27559;DHT22;15002;52.028;5.670;2023-09-30T10:07:50;23.20;99.90
27559;DHT22;15002;52.028;5.670;2023-09-30T10:10:19;23.10;99.90
27559;DHT22;15002;52.028;5.670;2023-09-30T10:12:46;23.60;99.90
27559;DHT22;15002;52.028;5.670;2023-09-30T10:18:05;23.10;99.90
27559;DHT22;15002;52.028;5.670;2023-09-30T10:20:41;23.00;99.90
27559;DHT22;15002;52.028;5.670;2023-09-30T10:23:21;23.50;99.90
27559;DHT22;15002;52.028;5.670;2023-09-30T10:25:49;23.90;99.90
27559;DHT22;15002;52.028;5.670;2023-09-30T10:28:44;23.90;99.90
27559;DHT22;15002;52.028;5.670;2023-09-30T10:31:15;23.60;99.90
27559;DHT22;15002;52.028;5.670;2023-09-30T10:38:54;23.10;99.90
27559;DHT22;15002;52.028;5.670;2023-09-30T10:46:48;22.90;99.90
27559;DHT22;15002;52.028;5.670;2023-09-30T10:49:35;22.90;99.90
27559;DHT22;15002;52.028;5.670;2023-09-30T10:52:04;23.40;99.90
27559;DHT22;15002;52.028;5.670;2023-09-30T10:54:33;23.20;99.90
27559;DHT22;15002;52.028;5.670;2023-09-30T10:56:59;23.40;99.90
27559;DHT22;15002;52.028;5.670;2023-09-30T10:59:27;23.40;99.90
27559;DHT22;15002;52.028;5.670;2023-09-30T11:01:55;23.10;99.90
27559;DHT22;15002;52.028;5.670;2023-09-30T11:04:21;23.20;99.90
27559;DHT22;15002;52.028;5.670;2023-09-30T11:06:47;23.00;99.90
27559;DHT22;15002;52.028;5.670;2023-09-30T11:09:17;22.80;99.90
27559;DHT22;15002;52.028;5.670;2023-09-30T11:11:45;22.40;99.90
27559;DHT22;15002;52.028;5.670;2023-09-30T11:16:46;22.10;99.90
27559;DHT22;15002;52.028;5.670;2023-09-30T11:19:12;22.00;99.90
27559;DHT22;15002;52.028;5.670;2023-09-30T11:21:42;22.10;99.90
27559;DHT22;15002;52.028;5.670;2023-09-30T11:24:11;22.20;99.90
27559;DHT22;15002;52.028;5.670;2023-09-30T11:26:37;22.50;99.90
27559;DHT22;15002;52.028;5.670;2023-09-30T11:29:14;22.50;99.90
27559;DHT22;15002;52.028;5.670;2023-09-30T11:31:42;22.40;99.90
27559;DHT22;15002;52.028;5.670;2023-09-30T11:34:09;22.20;99.90
27559;DHT22;15002;52.028;5.670;2023-09-30T11:36:40;22.00;99.90
27559;DHT22;15002;52.028;5.670;2023-09-30T11:39:08;22.20;99.90
27559;DHT22;15002;52.028;5.670;2023-09-30T11:41:35;22.30;99.90
27559;DHT22;15002;52.028;5.670;2023-09-30T11:44:08;22.40;99.90
27559;DHT22;15002;52.028;5.670;2023-09-30T11:49:52;22.70;99.90
27559;DHT22;15002;52.028;5.670;2023-09-30T11:52:26;22.60;99.90
27559;DHT22;15002;52.028;5.670;2023-09-30T11:54:52;22.70;99.90
27559;DHT22;15002;52.028;5.670;2023-09-30T11:57:19;22.90;99.90
27559;DHT22;15002;52.028;5.670;2023-09-30T11:59:46;23.10;99.90
27559;DHT22;15002;52.028;5.670;2023-09-30T12:02:13;22.70;99.90
27559;DHT22;15002;52.028;5.670;2023-09-30T12:04:44;22.80;99.90
27559;DHT22;15002;52.028;5.670;2023-09-30T12:07:10;22.80;99.90
27559;DHT22;15002;52.028;5.670;2023-09-30T12:09:36;22.60;99.90
27559;DHT22;15002;52.028;5.670;2023-09-30T12:12:05;22.80;99.90
27559;DHT22;15002;52.028;5.670;2023-09-30T12:14:34;22.60;99.90
27559;DHT22;15002;52.028;5.670;2023-09-30T12:17:00;22.60;99.90
27559;DHT22;15002;52.028;5.670;2023-09-30T12:19:26;22.50;99.90
27559;DHT22;15002;52.028;5.670;2023-09-30T12:21:52;22.60;99.90
27559;DHT22;15002;52.028;5.670;2023-09-30T12:24:18;22.40;99.90
27559;DHT22;15002;52.028;5.670;2023-09-30T12:26:50;22.60;99.90
27559;DHT22;15002;52.028;5.670;2023-09-30T12:29:20;22.50;99.90
27559;DHT22;15002;52.028;5.670;2023-09-30T12:31:48;22.60;99.90
27559;DHT22;15002;52.028;5.670;2023-09-30T12:34:15;22.80;99.90
27559;DHT22;15002;52.028;5.670;2023-09-30T12:36:41;22.60;99.90
27559;DHT22;15002;52.028;5.670;2023-09-30T12:39:08;22.70;99.90
27559;DHT22;15002;52.028;5.670;2023-09-30T12:41:38;22.50;99.90
27559;DHT22;15002;52.028;5.670;2023-09-30T12:44:04;22.50;99.90
27559;DHT22;15002;52.028;5.670;2023-09-30T12:46:30;22.60;99.90
27559;DHT22;15002;52.028;5.670;2023-09-30T12:48:56;22.50;99.90
27559;DHT22;15002;52.028;5.670;2023-09-30T12:51:22;22.50;99.90
27559;DHT22;15002;52.028;5.670;2023-09-30T12:53:48;22.30;99.90
27559;DHT22;15002;52.028;5.670;2023-09-30T12:56:14;22.10;99.90
27559;DHT22;15002;52.028;5.670;2023-09-30T12:58:40;22.10;99.90
27559;DHT22;15002;52.028;5.670;2023-09-30T13:01:06;22.10;99.90
27559;DHT22;15002;52.028;5.670;2023-09-30T13:03:33;22.10;99.90
27559;DHT22;15002;52.028;5.670;2023-09-30T13:05:58;22.10;99.90
27559;DHT22;15002;52.028;5.670;2023-09-30T13:08:24;22.10;99.90
27559;DHT22;15002;52.028;5.670;2023-09-30T13:10:49;22.10;99.90
27559;DHT22;15002;52.028;5.670;2023-09-30T13:13:16;22.10;99.90
27559;DHT22;15002;52.028;5.670;2023-09-30T13:15:42;22.10;99.90
27559;DHT22;15002;52.028;5.670;2023-09-30T13:18:07;22.20;99.90
27559;DHT22;15002;52.028;5.670;2023-09-30T13:20:33;22.20;99.90
27559;DHT22;15002;52.028;5.670;2023-09-30T13:22:58;22.30;99.90
27559;DHT22;15002;52.028;5.670;2023-09-30T13:25:24;22.20;99.90
27559;DHT22;15002;52.028;5.670;2023-09-30T13:27:51;22.10;99.90
27559;DHT22;15002;52.028;5.670;2023-09-30T13:30:17;22.00;99.90
27559;DHT22;15002;52.028;5.670;2023-09-30T13:32:43;22.10;99.90
27559;DHT22;15002;52.028;5.670;2023-09-30T13:35:09;22.00;99.90
27559;DHT22;15002;52.028;5.670;2023-09-30T13:37:35;22.10;99.90
27559;DHT22;15002;52.028;5.670;2023-09-30T13:40:03;22.10;99.90
27559;DHT22;15002;52.028;5.670;2023-09-30T13:42:34;22.10;99.90
27559;DHT22;15002;52.028;5.670;2023-09-30T13:45:00;22.20;99.90
27559;DHT22;15002;52.028;5.670;2023-09-30T13:47:26;22.10;99.90
27559;DHT22;15002;52.028;5.670;2023-09-30T13:49:52;22.20;99.90
27559;DHT22;15002;52.028;5.670;2023-09-30T13:52:18;22.10;99.90
27559;DHT22;15002;52.028;5.670;2023-09-30T13:54:43;22.20;99.90
27559;DHT22;15002;52.028;5.670;2023-09-30T13:57:09;22.20;99.90
27559;DHT22;15002;52.028;5.670;2023-09-30T13:59:35;22.20;99.90
27559;DHT22;15002;52.028;5.670;2023-09-30T14:02:02;22.40;99.90
27559;DHT22;15002;52.028;5.670;2023-09-30T14:04:30;22.60;99.90
27559;DHT22;15002;52.028;5.670;2023-09-30T14:06:58;22.10;99.90
27559;DHT22;15002;52.028;5.670;2023-09-30T14:09:26;22.20;99.90
27559;DHT22;15002;52.028;5.670;2023-09-30T14:11:52;22.00;99.90
27559;DHT22;15002;52.028;5.670;2023-09-30T14:14:17;22.10;99.90
27559;DHT22;15002;52.028;5.670;2023-09-30T14:16:43;22.10;99.90
27559;DHT22;15002;52.028;5.670;2023-09-30T14:19:09;22.30;99.90
27559;DHT22;15002;52.028;5.670;2023-09-30T14:21:34;22.10;99.90
27559;DHT22;15002;52.028;5.670;2023-09-30T14:24:00;22.10;99.90
27559;DHT22;15002;52.028;5.670;2023-09-30T14:26:27;22.10;99.90
27559;DHT22;15002;52.028;5.670;2023-09-30T14:28:54;22.10;99.90
27559;DHT22;15002;52.028;5.670;2023-09-30T14:31:19;22.20;99.90
27559;DHT22;15002;52.028;5.670;2023-09-30T14:33:45;22.00;99.90
27559;DHT22;15002;52.028;5.670;2023-09-30T14:36:10;21.90;99.90
27559;DHT22;15002;52.028;5.670;2023-09-30T14:38:36;22.00;99.90
27559;DHT22;15002;52.028;5.670;2023-09-30T14:41:07;22.10;99.90
27559;DHT22;15002;52.028;5.670;2023-09-30T14:43:33;22.00;99.90
27559;DHT22;15002;52.028;5.670;2023-09-30T14:46:01;22.00;99.90
27559;DHT22;15002;52.028;5.670;2023-09-30T14:48:28;22.50;99.90
27559;DHT22;15002;52.028;5.670;2023-09-30T14:50:54;22.50;99.90
27559;DHT22;15002;52.028;5.670;2023-09-30T14:53:21;22.50;99.90
27559;DHT22;15002;52.028;5.670;2023-09-30T14:55:46;22.90;99.90
27559;DHT22;15002;52.028;5.670;2023-09-30T14:58:12;22.70;99.90
27559;DHT22;15002;52.028;5.670;2023-09-30T15:00:38;22.60;99.90
27559;DHT22;15002;52.028;5.670;2023-09-30T15:03:03;22.60;99.90
27559;DHT22;15002;52.028;5.670;2023-09-30T15:05:33;22.70;99.90
27559;DHT22;15002;52.028;5.670;2023-09-30T15:08:00;22.50;99.90
27559;DHT22;15002;52.028;5.670;2023-09-30T15:10:27;22.40;99.90
27559;DHT22;15002;52.028;5.670;2023-09-30T15:12:53;22.20;99.90
27559;DHT22;15002;52.028;5.670;2023-09-30T15:15:19;22.10;99.90
27559;DHT22;15002;52.028;5.670;2023-09-30T15:17:44;22.10;99.90
27559;DHT22;15002;52.028;5.670;2023-09-30T15:20:11;22.00;99.90
27559;DHT22;15002;52.028;5.670;2023-09-30T15:22:37;22.10;99.90
27559;DHT22;15002;52.028;5.670;2023-09-30T15:25:03;22.00;99.90
27559;DHT22;15002;52.028;5.670;2023-09-30T15:27:30;22.00;99.90
27559;DHT22;15002;52.028;5.670;2023-09-30T15:29:58;22.00;99.90
27559;DHT22;15002;52.028;5.670;2023-09-30T15:32:24;22.00;99.90
27559;DHT22;15002;52.028;5.670;2023-09-30T15:34:50;22.10;99.90
27559;DHT22;15002;52.028;5.670;2023-09-30T15:37:15;22.10;99.90
27559;DHT22;15002;52.028;5.670;2023-09-30T15:39:41;22.10;99.90
27559;DHT22;15002;52.028;5.670;2023-09-30T15:42:08;22.00;99.90
27559;DHT22;15002;52.028;5.670;2023-09-30T15:44:37;21.90;99.90
27559;DHT22;15002;52.028;5.670;2023-09-30T15:47:05;22.00;99.90